• Join FlightAware (Why Join?)
  • Login
  • US Flag 
03:23AM EDT


 

Airport Tracker/Info


-or-


 

Live Flight TrackerFlight Track Log ✈ SWA268 ✈ 09-Apr-2013 ✈ KLAS - KABQ

Flight Track Log - Related Links

Times and Time Zones

All times are in EDT time to prevent confusion due to time zone crossing. See the SWA268 flight status page for this flight to view local times or setup timezone preferences in your user account.

Time Position Orientation Groundspeed Altitude Reporting Facility
EDT Latitude Longitude Course Direction KTS MPH feet Rate Location/Type
01:58PM 36.1344 -115.0736 62° Northeast 225 259 5,500  Level Los Angeles Center
01:59PM 36.1408 -114.9897 85° East 271 312 8,400 3,360 Climbing Los Angeles Center
02:00PM 36.1458 -114.8836 87° East 286 329 12,500 3,360 Climbing Los Angeles Center
02:01PM 36.1011 -114.7578 114° Southeast 330 380 16,100 2,880 Climbing Los Angeles Center
02:02PM 36.0597 -114.6403 114° Southeast 370 426 18,500 2,760 Climbing Los Angeles Center
02:03PM 36.0178 -114.5133 112° Southeast 391 450 21,900 2,460 Climbing Los Angeles Center
02:04PM 35.9919 -114.3822 104° East 394 453 23,700 1,980 Climbing Los Angeles Center
02:05PM 35.9739 -114.2436 99° East 401 461 26,100 2,220 Climbing Los Angeles Center
02:06PM 35.9533 -114.1019 100° East 414 476 28,400 2,040 Climbing Los Angeles Center
02:07PM 35.9269 -113.9269 100° East 429 494 30,400 1,860 Climbing Los Angeles Center
02:08PM 35.9039 -113.7778 101° East 438 504 32,300 1,200 Climbing Los Angeles Center
02:09PM 35.8761 -113.6239 103° East 452 520 33,000 960 Climbing Los Angeles Center
02:10PM 35.8178 -113.4800 117° Southeast 488 562 34,300 1,440 Climbing Los Angeles Center
02:11PM 35.7636 -113.3294 114° Southeast 485 558 36,000 1,500 Climbing Los Angeles Center
02:12PM 35.7442 -113.1386 97° East 471 542 37,500 1,200 Climbing Los Angeles Center
02:13PM 35.7375 -112.9792 93° East 467 537 38,500 720 Climbing Los Angeles Center
02:14PM 35.7300 -112.8181 93° East 467 537 39,000 240 Climbing Los Angeles Center
02:15PM 35.7225 -112.6558 93° East 472 543 39,000  Level Los Angeles Center
02:16PM 35.7142 -112.4928 94° East 476 548 39,000  Level Los Angeles Center
02:17PM 35.7058 -112.3283 94° East 480 552 39,000  Level Los Angeles Center
02:18PM 35.6969 -112.1636 94° East 483 556 39,000  Level Los Angeles Center
02:19PM 35.6858 -111.9661 94° East 484 557 39,000  Level Los Angeles Center
02:20PM 35.6758 -111.8031 94° East 480 552 39,000  Level Los Angeles Center
02:21PM 35.6675 -111.6414 94° East 478 550 39,000  Level Los Angeles Center
02:23PM 35.6567 -111.4547 94° East 478 550 39,000  Level Los Angeles Center
02:23PM 35.6481 -111.3058 94° East 479 551 39,000  Level Albuquerque Center
02:24PM 35.6392 -111.1500 94° East 478 550 39,000  Level Albuquerque Center
02:25PM 35.6264 -110.9686 95° East 478 550 39,000  Level Albuquerque Center
02:27PM 35.6161 -110.8139 95° East 476 548 39,000  Level Albuquerque Center
02:28PM 35.6058 -110.6592 95° East 475 547 39,000  Level Albuquerque Center
02:29PM 35.5936 -110.4781 95° East 477 549 39,000  Level Albuquerque Center
02:30PM 35.5842 -110.3247 94° East 474 545 39,000  Level Albuquerque Center
02:31PM 35.5708 -110.1428 95° East 478 550 39,000  Level Albuquerque Center
02:32PM 35.5614 -109.9878 94° East 478 550 39,000 -300 Level Albuquerque Center
02:33PM 35.5483 -109.8056 95° East 480 552 38,400 -780 Descending Albuquerque Center
02:34PM 35.5369 -109.6483 95° East 483 556 37,500 -1,020 Descending Albuquerque Center
02:35PM 35.5236 -109.4636 95° East 487 560 36,400 -780 Descending Albuquerque Center
02:36PM 35.5103 -109.3056 96° East 488 562 36,000 -240 Descending Albuquerque Center
02:37PM 35.4983 -109.1492 95° East 485 558 36,000  Level Albuquerque Center
02:38PM 35.4847 -108.9678 95° East 482 555 36,000  Level Albuquerque Center
02:39PM 35.4789 -108.8114 93° East 483 556 36,000  Level Albuquerque Center
02:40PM 35.4822 -108.6283 89° East 484 557 36,000 -360 Level Albuquerque Center
02:41PM 35.4853 -108.4717 89° East 484 557 35,300 -2,040 Descending Albuquerque Center
02:42PM 35.4856 -108.2867 90° East 486 559 31,800 -2,880 Descending Albuquerque Center
02:43PM 35.4742 -108.1356 95° East 476 548 29,500 -2,340 Descending Albuquerque Center
02:44PM 35.4631 -107.9761 95° East 435 501 27,100 -1,920 Descending Albuquerque Center
02:45PM 35.4564 -107.8528 94° East 397 457 25,600 -1,800 Descending Albuquerque Center
02:46PM 35.4464 -107.7131 95° East 380 437 23,500 -1,860 Descending Albuquerque Center
02:47PM 35.4375 -107.5947 95° East 371 427 21,800 -1,680 Descending Albuquerque Center
02:48PM 35.4311 -107.4775 94° East 364 419 20,100 -1,920 Descending Albuquerque Center
02:49PM 35.4225 -107.3869 97° East 351 404 18,700 -2,160 Descending Albuquerque Center
02:49PM 35.4175 -107.3453 98° East 351 404 17,900 -1,980 Descending Albuquerque Center
02:50PM 35.3856 -107.2922 126° Southeast 340 391 16,900 -1,380 Descending Albuquerque Center
02:50PM 35.3664 -107.2528 121° Southeast 341 392 16,500 -1,200 Descending Albuquerque Center
02:51PM 35.3375 -107.1975 123° Southeast 328 377 15,700 -1,500 Descending Albuquerque Center
02:51PM 35.3133 -107.1489 121° Southeast 322 371 15,000 -600 Descending Albuquerque Center
02:52PM 35.2894 -107.1031 123° Southeast 319 367 15,100 60 Climbing Albuquerque Center
02:52PM 35.2747 -107.0561 111° Southeast 321 369 15,100  Level Albuquerque Center
02:53PM 35.2614 -107.0011 107° East 328 377 15,100 -1,680 Level Albuquerque Center
02:53PM 35.2444 -106.9375 108° East 326 375 13,400 -3,000 Descending Albuquerque Center
02:54PM 35.2322 -106.8917 108° East 341 392 12,100 -2,760 Descending Albuquerque Center
02:54PM 35.2125 -106.8217 109° East 349 402 10,600 -1,800 Descending Albuquerque Center
02:55PM 35.2006 -106.7828 111° Southeast 350 403 10,300 -1,080 Descending Albuquerque Center
02:55PM 35.1847 -106.7211 107° East 314 361 9,500 -1,200 Descending Albuquerque Center
02:56PM 35.1731 -106.6861 112° Southeast 286 329 9,100 -1,080 Descending Albuquerque Center
02:56PM 35.1472 -106.6350 122° Southeast 287 330 8,400 -1,140 Descending Albuquerque Center
02:57PM 35.1286 -106.6144 138° Southeast 258 297 8,000 -1,200 Descending Albuquerque Center
02:57PM 35.0825 -106.6008 166° South 248 285 7,200 -900 Descending Albuquerque Center
02:58PM 35.0694 -106.5803 128° Southeast 238 274 7,100 -540 Descending Albuquerque Center
02:58PM 35.0642 -106.5317 98° East 217 250 6,700 -720 Descending Albuquerque Center
02:59PM 35.0511 -106.5253 158° South 174 200 6,400 -900 Descending Albuquerque Center
02:59PM 35.0436 -106.5522 251° West 144 166 5,800 -840 Descending Albuquerque Center
03:00PM 35.0439 -106.5689 271° West 113 130 5,600 -540 Descending Albuquerque Center
03:00PM 35.0433 -106.5931 268° West 130 150 5,300 -420 Descending Albuquerque Center
03:02PM 35.0333 -106.6000 90° East  Level FlightAware Approximate